createdAt,value
2022-09-23T00:00:35.325Z,100877.91
2022-09-23T00:06:15.867Z,100884.81
2022-09-23T00:11:28.840Z,100880.25
2022-09-23T00:16:52.073Z,100873.34
2022-09-23T00:22:17.323Z,100874.88
2022-09-23T00:27:22.788Z,100865.72
2022-09-23T00:32:36.852Z,100865.22
2022-09-23T00:37:54.331Z,100865.69
2022-09-23T00:43:00.881Z,100861.50
2022-09-23T00:48:07.779Z,100859.34
2022-09-23T00:53:25.477Z,100848.03
2022-09-23T00:58:37.754Z,100851.97
2022-09-23T01:03:58.958Z,100848.59
2022-09-23T01:09:22.994Z,100843.50
2022-09-23T01:14:51.253Z,100838.72
2022-09-23T01:20:19.080Z,100838.56
2022-09-23T01:25:55.688Z,100830.22
2022-09-23T01:31:12.161Z,100823.44
2022-09-23T01:36:23.901Z,100826.16
2022-09-23T01:41:48.263Z,100820.00
2022-09-23T01:47:16.686Z,100821.97
2022-09-23T01:52:30.071Z,100823.25
2022-09-23T01:57:44.403Z,100806.09
2022-09-23T02:03:00.305Z,100798.72
2022-09-23T02:08:11.301Z,100798.00
2022-09-23T02:13:34.412Z,100795.72
2022-09-23T02:19:02.598Z,100789.88
2022-09-23T02:24:32.263Z,100784.06
2022-09-23T02:29:56.510Z,100782.50
2022-09-23T02:35:17.651Z,100768.94
2022-09-23T02:40:33.269Z,100764.06
2022-09-23T02:45:45.775Z,100761.66
2022-09-23T02:51:04.208Z,100766.03
2022-09-23T02:56:16.581Z,100764.81
2022-09-23T03:01:34.647Z,100765.13
2022-09-23T03:06:56.534Z,100762.13
2022-09-23T03:12:14.436Z,100763.38
2022-09-23T03:17:29.432Z,100752.94
2022-09-23T03:22:54.060Z,100753.06
2022-09-23T03:28:08.692Z,100750.69
2022-09-23T03:33:19.978Z,100743.91
2022-09-23T03:38:39.623Z,100750.16
2022-09-23T03:43:56.128Z,100738.19
2022-09-23T03:49:08.297Z,100734.84
2022-09-23T03:54:26.862Z,100736.09
2022-09-23T03:59:38.317Z,100723.88
2022-09-23T04:04:47.220Z,100711.91
2022-09-23T04:09:54.831Z,100722.66
2022-09-23T04:15:18.472Z,100709.94
2022-09-23T04:20:34.123Z,100701.47
2022-09-23T04:25:47.814Z,100700.53
2022-09-23T04:30:56.107Z,100699.81
2022-09-23T04:36:09.244Z,100695.56
2022-09-23T04:41:39.561Z,100700.03
2022-09-23T04:47:07.152Z,100694.09
2022-09-23T04:52:30.366Z,100686.38
2022-09-23T04:57:47.352Z,100690.56
2022-09-23T05:02:54.602Z,100692.34
2022-09-23T05:08:31.427Z,100688.78
2022-09-23T05:13:39.463Z,100683.44
2022-09-23T05:18:46.518Z,100685.03
2022-09-23T05:23:55.547Z,100683.63
2022-09-23T05:29:02.282Z,100685.00
2022-09-23T05:34:15.547Z,100690.81
2022-09-23T05:39:24.035Z,100688.63
2022-09-23T05:44:46.210Z,100688.81
2022-09-23T05:50:00.162Z,100683.84
2022-09-23T05:55:17.139Z,100679.75
2022-09-23T06:00:26.955Z,100679.69
2022-09-23T06:05:38.254Z,100674.53
2022-09-23T06:10:54.609Z,100688.97
2022-09-23T06:16:05.156Z,100688.56
2022-09-23T06:21:18.320Z,100689.44
2022-09-23T06:26:28.963Z,100690.47
2022-09-23T06:31:37.037Z,100685.03
2022-09-23T06:37:12.225Z,100682.00
2022-09-23T06:42:21.092Z,100681.19
2022-09-23T06:47:35.077Z,100684.44
2022-09-23T06:52:42.616Z,100681.28
2022-09-23T06:57:52.232Z,100684.66
2022-09-23T07:03:10.475Z,100679.59
2022-09-23T07:08:20.592Z,100681.94
2022-09-23T07:13:45.729Z,100686.31
2022-09-23T07:18:59.622Z,100683.44
2022-09-23T07:24:16.357Z,100681.13
2022-09-23T07:29:24.155Z,100685.34
2022-09-23T07:34:30.436Z,100692.34
2022-09-23T07:39:42.837Z,100690.91
2022-09-23T07:44:48.361Z,100692.19
2022-09-23T07:49:57.845Z,100686.78
2022-09-23T07:55:05.544Z,100693.69
2022-09-23T08:00:18.257Z,100678.97
2022-09-23T08:05:26.246Z,100687.88
2022-09-23T08:10:35.435Z,100683.41
2022-09-23T08:21:12.998Z,100680.56
2022-09-23T08:26:23.355Z,100682.63
2022-09-23T08:31:39.442Z,100679.09
2022-09-23T08:36:56.207Z,100670.41
2022-09-23T08:42:26.307Z,100671.06
2022-09-23T08:47:44.277Z,100659.19
2022-09-23T08:52:58.872Z,100658.31
2022-09-23T08:58:32.740Z,100657.84
2022-09-23T09:03:57.632Z,100646.34
2022-09-23T09:09:06.542Z,100653.34
2022-09-23T09:14:19.749Z,100648.22
2022-09-23T09:19:47.952Z,100638.66
2022-09-23T09:25:14.378Z,100641.47
2022-09-23T09:30:28.478Z,100636.19
2022-09-23T09:35:40.289Z,100633.03
2022-09-23T09:40:54.871Z,100631.56
2022-09-23T09:46:19.113Z,100614.13
2022-09-23T09:51:33.272Z,100610.94
2022-09-23T09:56:45.354Z,100610.44
2022-09-23T10:01:51.820Z,100603.34
2022-09-23T10:07:18.044Z,100598.13
2022-09-23T10:12:55.971Z,100598.94
2022-09-23T10:18:25.010Z,100604.31
2022-09-23T10:23:41.455Z,100589.38
2022-09-23T10:29:21.436Z,100594.19
2022-09-23T10:34:42.485Z,100590.19
2022-09-23T10:40:05.265Z,100596.06
2022-09-23T10:45:42.651Z,100584.22
2022-09-23T10:50:59.612Z,100572.75
2022-09-23T10:56:40.021Z,100570.69
2022-09-23T11:02:12.321Z,100561.09
2022-09-23T11:07:32.752Z,100548.31
2022-09-23T11:12:49.306Z,100543.41
2022-09-23T11:18:27.177Z,100536.97
2022-09-23T11:23:54.123Z,100536.91
2022-09-23T11:35:16.857Z,100518.56
2022-09-23T11:40:32.219Z,100511.72
2022-09-23T11:45:44.359Z,100506.50
2022-09-23T11:51:00.437Z,100506.44
2022-09-23T11:56:16.673Z,100496.66
2022-09-23T12:01:37.984Z,100490.13
2022-09-23T12:06:52.819Z,100483.00
2022-09-23T12:12:21.917Z,100477.16
2022-09-23T12:18:08.080Z,100473.13
2022-09-23T12:23:27.072Z,100475.22
2022-09-23T12:28:38.594Z,100472.84
2022-09-23T12:33:54.835Z,100475.50
2022-09-23T12:39:22.080Z,100457.94
2022-09-23T12:44:41.114Z,100462.97
2022-09-23T12:49:47.431Z,100453.38
2022-09-23T12:55:08.209Z,100437.91
2022-09-23T13:00:32.163Z,100440.47
2022-09-23T13:06:03.608Z,100434.13
2022-09-23T13:11:24.543Z,100434.09
2022-09-23T13:16:37.481Z,100429.50
2022-09-23T13:22:11.350Z,100418.22
2022-09-23T13:27:30.409Z,100407.34
2022-09-23T13:32:50.426Z,100400.91
2022-09-23T13:38:00.974Z,100391.38
2022-09-23T13:43:14.151Z,100379.06
2022-09-23T13:48:22.695Z,100362.28
2022-09-23T13:53:39.844Z,100361.38
2022-09-23T13:58:50.598Z,100358.72
2022-09-23T14:03:57.591Z,100360.38
2022-09-23T14:09:10.949Z,100359.09
2022-09-23T14:14:21.237Z,100364.69
2022-09-23T14:19:39.272Z,100350.06
2022-09-23T14:24:45.364Z,100338.06
2022-09-23T14:30:21.939Z,100332.78
2022-09-23T14:35:56.255Z,100335.63
2022-09-23T14:41:17.638Z,100326.84
2022-09-23T14:46:41.995Z,100324.56
2022-09-23T14:52:00.218Z,100317.31
2022-09-23T14:57:08.380Z,100312.09
2022-09-23T15:02:53.003Z,100308.56
2022-09-23T15:08:05.399Z,100303.28
2022-09-23T15:13:13.946Z,100296.69
2022-09-23T15:18:23.477Z,100294.06
2022-09-23T15:24:05.813Z,100294.84
2022-09-23T15:29:22.027Z,100288.66
2022-09-23T15:34:57.778Z,100287.28
2022-09-23T15:40:04.123Z,100284.19
2022-09-23T15:45:13.284Z,100283.34
2022-09-23T15:50:36.007Z,100280.22
2022-09-23T15:56:02.636Z,100273.19
2022-09-23T16:01:23.830Z,100266.97
2022-09-23T16:06:32.125Z,100265.59
2022-09-23T16:11:38.571Z,100261.81
2022-09-23T16:16:50.433Z,100265.19
2022-09-23T16:22:04.467Z,100264.25
2022-09-23T16:27:12.426Z,100266.97
2022-09-23T16:32:25.067Z,100266.22
2022-09-23T16:37:39.907Z,100258.47
2022-09-23T16:42:56.024Z,100266.31
2022-09-23T16:48:05.290Z,100265.88
2022-09-23T16:53:29.674Z,100260.81
2022-09-23T16:58:40.393Z,100263.03
2022-09-23T17:03:47.390Z,100252.84
2022-09-23T17:09:02.277Z,100263.66
2022-09-23T17:14:14.915Z,100259.25
2022-09-23T17:19:27.079Z,100262.91
2022-09-23T17:24:45.291Z,100257.03
2022-09-23T17:30:05.198Z,100258.22
2022-09-23T17:46:21.713Z,100249.19
2022-09-23T17:51:33.156Z,100245.75
2022-09-23T17:56:57.630Z,100256.81
2022-09-23T18:02:04.548Z,100255.66
2022-09-23T18:07:17.133Z,100248.41
2022-09-23T18:12:31.913Z,100248.59
2022-09-23T18:17:53.248Z,100249.25
2022-09-23T18:23:12.938Z,100235.38
2022-09-23T18:28:31.406Z,100238.00
2022-09-23T18:33:44.304Z,100253.16
2022-09-23T18:39:04.037Z,100245.06
2022-09-23T18:44:30.595Z,100245.72
2022-09-23T18:50:06.576Z,100244.06
2022-09-23T18:55:30.249Z,100247.16
2022-09-23T19:01:00.848Z,100251.13
2022-09-23T19:06:21.269Z,100253.03
2022-09-23T19:11:27.368Z,100253.53
2022-09-23T19:16:35.298Z,100247.91
2022-09-23T19:21:44.876Z,100250.03
2022-09-23T19:26:52.103Z,100247.19
2022-09-23T19:32:03.789Z,100244.56
2022-09-23T19:37:11.096Z,100249.16
2022-09-23T19:42:20.074Z,100239.81
2022-09-23T19:47:29.835Z,100233.03
2022-09-23T19:52:40.573Z,100233.50
2022-09-23T19:58:10.522Z,100227.38
2022-09-23T20:03:21.952Z,100231.31
2022-09-23T20:08:30.742Z,100231.78
2022-09-23T20:13:39.821Z,100229.16
2022-09-23T20:18:57.261Z,100226.00
2022-09-23T20:24:12.303Z,100225.34
2022-09-23T20:29:24.404Z,100220.06
2022-09-23T20:34:33.816Z,100211.19
2022-09-23T20:39:42.561Z,100210.19
2022-09-23T20:44:48.272Z,100204.75
2022-09-23T20:49:57.354Z,100201.97
2022-09-23T21:00:25.744Z,100196.50
2022-09-23T21:05:42.842Z,100188.28
2022-09-23T21:10:57.871Z,100178.59
2022-09-23T21:16:10.407Z,100173.31
2022-09-23T21:21:20.814Z,100182.03
2022-09-23T21:26:41.537Z,100185.81
2022-09-23T21:31:52.566Z,100184.47
2022-09-23T21:37:07.626Z,100184.28
2022-09-23T21:47:20.508Z,100180.50
2022-09-23T21:52:35.957Z,100181.28
2022-09-23T21:57:46.825Z,100182.75
2022-09-23T22:02:50.990Z,100178.47
2022-09-23T22:08:05.237Z,100186.00
2022-09-23T22:13:13.082Z,100166.94
2022-09-23T22:18:20.465Z,100178.06
2022-09-23T22:23:31.583Z,100176.91
2022-09-23T22:28:55.487Z,100173.09
2022-09-23T22:33:59.604Z,100176.03
2022-09-23T22:39:13.927Z,100165.97
2022-09-23T22:44:19.871Z,100170.69
2022-09-23T22:49:28.457Z,100163.13
2022-09-23T22:54:38.933Z,100157.66
2022-09-23T22:59:58.165Z,100155.34
2022-09-23T23:10:32.031Z,100161.38
2022-09-23T23:15:43.423Z,100164.97
2022-09-23T23:20:50.535Z,100151.63
2022-09-23T23:25:59.317Z,100150.41
2022-09-23T23:31:08.274Z,100139.38
2022-09-23T23:36:32.477Z,100141.94
2022-09-23T23:41:48.316Z,100128.44
2022-09-23T23:46:55.020Z,100137.06
2022-09-23T23:52:04.660Z,100132.41
2022-09-23T23:57:29.279Z,100134.84
